createdAt,value
2023-02-12T00:25:34.952Z,17.00
2023-02-12T00:28:01.474Z,16.50
2023-02-12T00:30:28.048Z,17.33
2023-02-12T00:32:54.597Z,16.85
2023-02-12T00:35:21.202Z,17.45
2023-02-12T00:37:47.721Z,17.45
2023-02-12T00:40:14.269Z,17.77
2023-02-12T00:42:40.969Z,16.92
2023-02-12T00:45:08.024Z,17.65
2023-02-12T00:47:34.580Z,16.98
2023-02-12T00:50:01.193Z,16.30
2023-02-12T00:52:27.707Z,17.55
2023-02-12T00:54:54.259Z,17.83
2023-02-12T00:57:20.753Z,18.08
2023-02-12T00:59:47.897Z,18.85
2023-02-12T01:02:14.604Z,16.30
2023-02-12T01:04:41.170Z,17.38
2023-02-12T01:07:07.742Z,18.08
2023-02-12T01:09:34.231Z,16.92
2023-02-12T01:12:00.772Z,15.40
2023-02-12T01:14:27.338Z,18.40
2023-02-12T01:16:53.816Z,18.52
2023-02-12T01:19:20.438Z,15.57
2023-02-12T01:21:46.997Z,16.63
2023-02-12T01:24:13.535Z,17.17
2023-02-12T01:26:40.070Z,19.30
2023-02-12T01:29:07.787Z,18.25
2023-02-12T01:31:37.956Z,18.55
2023-02-12T01:34:05.970Z,17.55
2023-02-12T01:36:33.292Z,16.83
2023-02-12T01:38:59.860Z,17.67
2023-02-12T01:41:36.033Z,16.70
2023-02-12T01:46:37.992Z,15.05
2023-02-12T01:49:08.960Z,16.63
2023-02-12T01:51:36.417Z,18.35
2023-02-12T01:54:07.667Z,15.80
2023-02-12T01:56:35.056Z,16.60
2023-02-12T01:59:02.111Z,15.45
2023-02-12T02:01:30.909Z,17.08
2023-02-12T02:04:19.270Z,17.33
2023-02-12T02:07:06.444Z,17.25
2023-02-12T02:09:36.129Z,17.92
2023-02-12T02:12:21.838Z,15.35
2023-02-12T02:14:50.658Z,17.02
2023-02-12T02:17:29.297Z,16.88
2023-02-12T02:20:26.722Z,16.77
2023-02-12T02:23:17.725Z,16.73
2023-02-12T02:25:57.154Z,16.17
2023-02-12T02:28:39.287Z,17.20
2023-02-12T02:31:39.498Z,17.05
2023-02-12T02:37:00.751Z,17.48
2023-02-12T02:39:39.951Z,15.07
2023-02-12T02:42:16.256Z,14.43
2023-02-12T02:45:12.365Z,16.48
2023-02-12T02:47:47.689Z,16.23
2023-02-12T02:50:19.963Z,18.42
2023-02-12T02:52:57.428Z,15.85
2023-02-12T02:55:27.020Z,16.98
2023-02-12T02:58:22.830Z,16.63
2023-02-12T03:00:57.243Z,16.95
2023-02-12T03:03:29.760Z,17.13
2023-02-12T03:06:04.272Z,18.42
2023-02-12T03:08:42.150Z,17.65
2023-02-12T03:11:19.343Z,16.90
2023-02-12T03:14:02.722Z,15.48
2023-02-12T03:16:32.636Z,14.93
2023-02-12T03:19:11.955Z,15.02
2023-02-12T03:21:52.845Z,15.27
2023-02-12T03:24:28.816Z,14.00
2023-02-12T03:27:12.898Z,12.05
2023-02-12T03:29:39.712Z,16.42
2023-02-12T03:32:30.596Z,16.05
2023-02-12T03:35:34.027Z,16.63
2023-02-12T03:38:13.814Z,15.65
2023-02-12T03:40:45.567Z,16.35
2023-02-12T03:43:23.825Z,17.00
2023-02-12T03:45:53.547Z,15.70
2023-02-12T03:48:28.257Z,16.50
2023-02-12T03:51:01.432Z,14.82
2023-02-12T03:53:29.688Z,15.30
2023-02-12T03:56:10.189Z,16.55
2023-02-12T03:58:38.742Z,17.60
2023-02-12T04:01:06.574Z,15.10
2023-02-12T04:03:33.911Z,15.55
2023-02-12T04:06:00.452Z,15.43
2023-02-12T04:08:28.282Z,16.77
2023-02-12T04:10:54.726Z,16.98
2023-02-12T04:13:33.177Z,16.13
2023-02-12T04:16:17.604Z,18.15
2023-02-12T04:18:46.990Z,17.30
2023-02-12T04:21:18.924Z,17.15
2023-02-12T04:23:53.117Z,17.38
2023-02-12T04:26:47.563Z,17.33
2023-02-12T04:29:23.027Z,17.92
2023-02-12T04:34:40.503Z,15.93
2023-02-12T04:37:20.960Z,15.02
2023-02-12T04:39:49.666Z,13.80
2023-02-12T04:42:16.436Z,14.95
2023-02-12T04:44:44.461Z,16.33
2023-02-12T04:47:16.084Z,17.40
2023-02-12T04:49:42.692Z,15.73
2023-02-12T04:52:09.912Z,16.60
2023-02-12T04:54:36.624Z,15.10
2023-02-12T04:57:03.553Z,15.68
2023-02-12T04:59:30.083Z,16.17
2023-02-12T05:01:56.991Z,17.85
2023-02-12T05:04:23.508Z,17.15
2023-02-12T05:06:50.002Z,16.67
2023-02-12T05:09:19.874Z,15.88
2023-02-12T05:11:46.446Z,14.57
2023-02-12T05:14:13.080Z,15.48
2023-02-12T05:16:39.922Z,15.93
2023-02-12T05:19:06.467Z,16.98
2023-02-12T05:21:33.003Z,16.23
2023-02-12T05:24:01.568Z,16.88
2023-02-12T05:26:28.078Z,14.07
2023-02-12T05:28:54.612Z,16.80
2023-02-12T05:31:22.173Z,17.10
2023-02-12T05:33:49.435Z,17.27
2023-02-12T05:36:19.065Z,16.05
2023-02-12T05:38:46.039Z,17.55
2023-02-12T05:41:16.097Z,17.88
2023-02-12T05:43:43.378Z,16.60
2023-02-12T05:46:10.876Z,17.65
2023-02-12T05:48:38.112Z,17.38
2023-02-12T05:51:06.685Z,16.88
2023-02-12T05:53:33.505Z,16.58
2023-02-12T05:56:12.830Z,16.05
2023-02-12T05:58:40.676Z,16.27
2023-02-12T06:01:15.443Z,16.30
2023-02-12T06:03:42.156Z,16.58
2023-02-12T06:06:09.663Z,16.85
2023-02-12T06:08:37.175Z,16.55
2023-02-12T06:11:06.790Z,15.40
2023-02-12T06:13:34.055Z,14.98
2023-02-12T06:16:00.801Z,16.17
2023-02-12T06:18:28.137Z,15.05
2023-02-12T06:20:54.941Z,15.18
2023-02-12T06:23:22.913Z,15.60
2023-02-12T06:25:50.929Z,16.05
2023-02-12T06:28:17.877Z,14.80
2023-02-12T06:30:44.558Z,16.90
2023-02-12T06:33:11.121Z,16.27
2023-02-12T06:35:38.126Z,16.77
2023-02-12T06:38:05.025Z,16.75
2023-02-12T06:40:31.532Z,16.20
2023-02-12T06:42:58.059Z,16.38
2023-02-12T06:45:24.552Z,16.95
2023-02-12T06:47:51.952Z,16.52
2023-02-12T06:50:18.784Z,17.08
2023-02-12T06:52:45.307Z,15.80
2023-02-12T06:55:11.845Z,15.15
2023-02-12T06:57:38.463Z,15.68
2023-02-12T07:00:05.696Z,16.70
2023-02-12T07:02:32.225Z,16.30
2023-02-12T07:04:58.715Z,16.60
2023-02-12T07:07:25.449Z,16.55
2023-02-12T07:09:52.082Z,17.70
2023-02-12T07:12:18.560Z,15.93
2023-02-12T07:14:46.182Z,15.40
2023-02-12T07:17:12.661Z,16.02
2023-02-12T07:19:39.260Z,17.77
2023-02-12T07:22:05.796Z,17.48
2023-02-12T07:24:32.300Z,16.50
2023-02-12T07:26:58.808Z,18.02
2023-02-12T07:29:25.377Z,16.13
2023-02-12T07:31:51.885Z,17.13
2023-02-12T07:34:18.476Z,18.08
2023-02-12T07:36:45.035Z,15.52
2023-02-12T07:39:12.383Z,15.68
2023-02-12T07:41:38.966Z,16.52
2023-02-12T07:44:10.090Z,16.23
2023-02-12T07:46:39.249Z,16.90
2023-02-12T07:49:07.054Z,15.68
2023-02-12T07:51:35.120Z,16.40
2023-02-12T07:54:02.513Z,15.18
2023-02-12T07:56:32.604Z,17.17
2023-02-12T07:59:01.689Z,17.77
2023-02-12T08:01:30.922Z,16.42
2023-02-12T08:06:33.894Z,16.42
2023-02-12T08:11:29.919Z,16.30
2023-02-12T08:13:57.995Z,15.63
2023-02-12T08:16:26.465Z,16.30
2023-02-12T08:18:54.187Z,16.63
2023-02-12T08:21:25.851Z,17.83
2023-02-12T08:23:54.978Z,15.68
2023-02-12T08:26:24.655Z,16.88
2023-02-12T08:28:54.410Z,15.63
2023-02-12T08:31:26.894Z,18.55
2023-02-12T08:33:55.058Z,16.30
2023-02-12T08:36:30.841Z,19.52
2023-02-12T08:38:59.455Z,20.33
2023-02-12T08:41:30.202Z,22.05
2023-02-12T08:43:59.081Z,20.25
2023-02-12T08:46:30.797Z,19.40
2023-02-12T08:49:00.437Z,18.85
2023-02-12T08:51:30.405Z,17.73
2023-02-12T08:53:59.216Z,17.20
2023-02-12T08:56:29.944Z,17.33
2023-02-12T08:59:00.274Z,17.40
2023-02-12T09:01:29.394Z,17.77
2023-02-12T09:06:24.489Z,18.25
2023-02-12T09:08:52.727Z,18.45
2023-02-12T09:11:26.527Z,15.73
2023-02-12T09:13:53.378Z,18.13
2023-02-12T09:16:19.987Z,17.92
2023-02-12T09:18:46.648Z,18.80
2023-02-12T09:21:16.688Z,16.73
2023-02-12T09:23:44.557Z,18.50
2023-02-12T09:26:13.679Z,20.90
2023-02-12T09:31:09.210Z,17.63
2023-02-12T09:33:36.553Z,18.63
2023-02-12T09:36:05.008Z,17.95
2023-02-12T09:38:31.992Z,18.58
2023-02-12T09:41:17.064Z,18.38
2023-02-12T09:44:21.718Z,18.10
2023-02-12T09:47:01.352Z,18.98
2023-02-12T09:49:49.238Z,17.10
2023-02-12T09:52:19.298Z,15.82
2023-02-12T09:54:46.413Z,17.55
2023-02-12T09:57:36.337Z,19.92
2023-02-12T10:00:21.916Z,20.02
2023-02-12T10:02:52.880Z,18.25
2023-02-12T10:05:25.433Z,17.08
2023-02-12T10:08:22.180Z,17.45
2023-02-12T10:11:06.302Z,16.92
2023-02-12T10:13:41.885Z,17.27
2023-02-12T10:16:26.668Z,17.42
2023-02-12T10:18:53.146Z,17.08
2023-02-12T10:21:47.937Z,16.30
2023-02-12T10:24:49.339Z,14.43
2023-02-12T10:27:20.741Z,15.75
2023-02-12T10:29:48.845Z,16.02
2023-02-12T10:32:26.839Z,16.05
2023-02-12T10:34:56.064Z,16.42
2023-02-12T10:37:40.326Z,18.85
2023-02-12T10:40:23.371Z,16.40
2023-02-12T10:42:52.451Z,16.42
2023-02-12T10:45:31.832Z,17.65
2023-02-12T10:48:16.062Z,16.05
2023-02-12T10:51:03.526Z,14.23
2023-02-12T10:56:21.687Z,15.52
2023-02-12T10:58:59.984Z,14.38
2023-02-12T11:01:26.517Z,13.93
2023-02-12T11:03:54.541Z,13.82
2023-02-12T11:06:24.411Z,12.60
2023-02-12T11:08:51.761Z,14.60
2023-02-12T11:11:29.758Z,12.55
2023-02-12T11:14:19.877Z,14.05
2023-02-12T11:16:59.107Z,14.10
2023-02-12T11:19:28.624Z,14.15
2023-02-12T11:22:14.552Z,13.20
2023-02-12T11:24:41.471Z,13.90
2023-02-12T11:27:17.039Z,14.98
2023-02-12T11:29:46.822Z,14.43
2023-02-12T11:32:20.163Z,14.43
2023-02-12T11:35:25.415Z,15.10
2023-02-12T11:37:55.694Z,13.57
2023-02-12T11:40:26.180Z,14.85
2023-02-12T11:43:05.784Z,15.40
2023-02-12T11:45:48.712Z,15.60
2023-02-12T11:48:32.956Z,15.15
2023-02-12T11:51:02.723Z,14.45
2023-02-12T11:53:33.312Z,15.50
2023-02-12T11:56:05.982Z,13.93
2023-02-12T11:58:32.972Z,15.02
2023-02-12T12:01:12.628Z,14.77
2023-02-12T12:03:43.936Z,12.60
2023-02-12T12:06:29.726Z,14.75
2023-02-12T12:09:02.170Z,14.48
2023-02-12T12:11:47.299Z,15.13
2023-02-12T12:14:29.616Z,15.35
2023-02-12T12:17:22.485Z,13.48
2023-02-12T12:19:59.278Z,12.65
2023-02-12T12:22:44.327Z,14.00
2023-02-12T12:25:16.927Z,14.98
2023-02-12T12:28:17.090Z,13.75
2023-02-12T12:31:03.127Z,13.63
2023-02-12T12:33:38.871Z,13.88
2023-02-12T12:36:05.329Z,13.98
2023-02-12T12:38:34.814Z,15.07
2023-02-12T12:41:15.492Z,14.10
2023-02-12T12:44:09.580Z,14.40
2023-02-12T12:47:14.958Z,12.02
2023-02-12T12:49:51.871Z,14.35
2023-02-12T12:52:36.692Z,13.50
2023-02-12T12:55:38.619Z,14.68
2023-02-12T12:58:43.326Z,14.27
2023-02-12T13:01:30.192Z,14.70
2023-02-12T13:04:34.294Z,16.08
2023-02-12T13:07:30.933Z,14.70
2023-02-12T13:10:16.620Z,16.52
2023-02-12T13:12:48.962Z,15.95
2023-02-12T13:15:56.536Z,17.77
2023-02-12T13:18:29.256Z,17.40
2023-02-12T13:21:26.926Z,15.25
2023-02-12T13:24:03.503Z,16.42
2023-02-12T13:26:48.495Z,16.40
2023-02-12T13:29:21.194Z,16.05
2023-02-12T13:31:59.756Z,17.63
2023-02-12T13:34:30.698Z,16.90
2023-02-12T13:37:03.115Z,15.93
2023-02-12T13:39:40.249Z,15.70
2023-02-12T13:42:22.306Z,15.05
2023-02-12T13:44:48.877Z,15.38
2023-02-12T13:47:37.109Z,16.45
2023-02-12T13:50:27.394Z,15.30
2023-02-12T13:53:06.623Z,14.85
2023-02-12T13:55:54.908Z,13.45
2023-02-12T13:58:40.060Z,13.88
2023-02-12T14:01:11.839Z,14.00
2023-02-12T14:03:39.512Z,12.25
2023-02-12T14:06:21.597Z,13.27
2023-02-12T14:08:52.774Z,11.40
2023-02-12T14:11:23.813Z,12.32
2023-02-12T14:13:58.661Z,11.95
2023-02-12T14:16:31.100Z,12.35
2023-02-12T14:19:34.934Z,12.55
2023-02-12T14:22:03.307Z,11.82
2023-02-12T14:24:35.917Z,13.20
2023-02-12T14:27:32.638Z,14.68
2023-02-12T14:30:31.746Z,12.25
2023-02-12T14:33:10.107Z,11.85
2023-02-12T14:35:44.595Z,13.63
2023-02-12T14:38:20.029Z,12.75
2023-02-12T14:40:50.220Z,11.90
2023-02-12T14:43:54.502Z,13.57
2023-02-12T14:46:23.924Z,13.48
2023-02-12T14:48:54.900Z,14.90
2023-02-12T14:51:37.914Z,14.32
2023-02-12T14:54:13.703Z,13.95
2023-02-12T14:56:49.209Z,12.80
2023-02-12T14:59:21.239Z,12.68
2023-02-12T15:01:49.175Z,14.10
2023-02-12T15:04:29.974Z,14.65
2023-02-12T15:07:08.349Z,14.15
2023-02-12T15:09:46.465Z,14.35
2023-02-12T15:12:20.477Z,15.23
2023-02-12T15:14:54.114Z,14.43
2023-02-12T15:17:26.163Z,15.20
2023-02-12T15:20:02.696Z,15.73
2023-02-12T15:22:39.291Z,14.32
2023-02-12T15:25:18.030Z,15.00
2023-02-12T15:27:47.847Z,12.70
2023-02-12T15:30:29.319Z,13.88
2023-02-12T15:32:58.162Z,13.63
2023-02-12T15:35:27.942Z,14.77
2023-02-12T15:37:56.451Z,15.02
2023-02-12T15:40:23.951Z,13.88
2023-02-12T15:42:57.535Z,14.80
2023-02-12T15:45:27.341Z,12.90
2023-02-12T15:48:02.386Z,13.38
2023-02-12T15:50:31.467Z,14.05
2023-02-12T15:55:28.337Z,13.27
2023-02-12T15:58:02.104Z,13.82
2023-02-12T16:00:37.836Z,12.93
2023-02-12T16:03:04.387Z,12.55
2023-02-12T16:05:32.978Z,12.63
2023-02-12T16:08:01.216Z,13.38
2023-02-12T16:10:27.983Z,13.15
2023-02-12T16:12:55.254Z,13.65
2023-02-12T16:15:31.496Z,13.63
2023-02-12T16:17:59.888Z,13.02
2023-02-12T16:20:28.868Z,12.77
2023-02-12T16:23:15.980Z,14.13
2023-02-12T16:25:42.464Z,15.25
2023-02-12T16:28:20.838Z,12.90
2023-02-12T16:30:48.422Z,13.30
2023-02-12T16:33:39.752Z,13.52
2023-02-12T16:36:24.304Z,14.20
2023-02-12T16:38:52.422Z,13.10
2023-02-12T16:41:18.875Z,13.73
2023-02-12T16:43:51.318Z,14.40
2023-02-12T16:46:19.237Z,13.68
2023-02-12T16:48:50.626Z,13.40
2023-02-12T16:51:23.111Z,14.60
2023-02-12T16:53:53.916Z,13.02
2023-02-12T16:56:23.208Z,11.52
2023-02-12T17:01:30.881Z,14.68
2023-02-12T17:03:59.327Z,12.88
2023-02-12T17:06:28.578Z,14.57
2023-02-12T17:08:55.455Z,13.70
2023-02-12T17:11:23.343Z,14.88
2023-02-12T17:13:51.808Z,13.55
2023-02-12T17:16:30.310Z,13.52
2023-02-12T17:18:58.633Z,15.88
2023-02-12T17:21:29.092Z,14.35
2023-02-12T17:23:55.798Z,13.25
2023-02-12T17:26:24.258Z,14.00
2023-02-12T17:28:51.060Z,15.30
2023-02-12T17:31:18.169Z,14.90
2023-02-12T17:33:44.896Z,13.90
2023-02-12T17:36:12.649Z,13.57
2023-02-12T17:38:39.246Z,14.52
2023-02-12T17:41:12.612Z,14.65
2023-02-12T17:43:39.320Z,14.95
2023-02-12T17:46:14.621Z,13.55
2023-02-12T17:51:09.994Z,13.52
2023-02-12T17:53:36.740Z,15.65
2023-02-12T17:56:03.746Z,15.48
2023-02-12T17:58:31.285Z,15.50
2023-02-12T18:01:03.737Z,14.73
2023-02-12T18:03:30.393Z,14.88
2023-02-12T18:05:57.195Z,14.80
2023-02-12T18:08:23.848Z,14.63
2023-02-12T18:10:50.682Z,13.30
2023-02-12T18:13:17.793Z,14.18
2023-02-12T18:15:44.754Z,14.73
2023-02-12T18:18:11.555Z,13.90
2023-02-12T18:20:41.049Z,14.15
2023-02-12T18:23:08.573Z,14.48
2023-02-12T18:25:39.589Z,15.13
2023-02-12T18:28:06.476Z,15.73
2023-02-12T18:30:33.477Z,14.43
2023-02-12T18:33:00.167Z,15.02
2023-02-12T18:35:26.955Z,14.18
2023-02-12T18:37:53.853Z,12.52
2023-02-12T18:40:20.505Z,15.18
2023-02-12T18:42:47.292Z,14.90
2023-02-12T18:45:13.963Z,14.98
2023-02-12T18:47:40.945Z,12.55
2023-02-12T18:50:08.481Z,13.60
2023-02-12T18:52:35.799Z,13.88
2023-02-12T18:55:02.593Z,14.02
2023-02-12T18:57:31.229Z,14.02
2023-02-12T18:59:58.106Z,14.18
2023-02-12T19:02:24.910Z,14.20
2023-02-12T19:04:51.884Z,13.07
2023-02-12T19:07:18.679Z,12.82
2023-02-12T19:09:45.737Z,13.30
2023-02-12T19:12:12.468Z,13.70
2023-02-12T19:14:39.311Z,13.07
2023-02-12T19:17:05.976Z,13.20
2023-02-12T19:19:32.832Z,13.32
2023-02-12T19:21:59.536Z,11.68
2023-02-12T19:24:37.679Z,13.35
2023-02-12T19:27:11.311Z,12.50
2023-02-12T19:29:38.039Z,13.57
2023-02-12T19:32:05.042Z,12.57
2023-02-12T19:34:31.836Z,11.93
2023-02-12T19:36:58.555Z,11.88
2023-02-12T19:39:25.427Z,10.40
2023-02-12T19:41:52.624Z,14.35
2023-02-12T19:44:21.858Z,12.80
2023-02-12T19:49:19.470Z,12.10
2023-02-12T19:51:46.949Z,11.68
2023-02-12T19:54:15.349Z,12.50
2023-02-12T19:56:42.566Z,12.75
2023-02-12T19:59:11.009Z,12.82
2023-02-12T20:01:37.794Z,13.80
2023-02-12T20:04:04.950Z,11.90
2023-02-12T20:06:35.830Z,11.77
2023-02-12T20:09:04.243Z,11.60
2023-02-12T20:11:32.481Z,12.05
2023-02-12T20:14:00.969Z,12.43
2023-02-12T20:16:34.285Z,11.35
2023-02-12T20:19:07.069Z,11.98
2023-02-12T20:21:34.766Z,11.48
2023-02-12T20:24:01.871Z,11.75
2023-02-12T20:26:30.575Z,11.18
2023-02-12T20:28:57.603Z,10.75
2023-02-12T20:31:29.229Z,10.70
2023-02-12T20:34:02.268Z,11.13
2023-02-12T20:36:34.433Z,11.20
2023-02-12T20:39:01.680Z,11.10
2023-02-12T20:41:28.754Z,10.70
2023-02-12T20:43:59.167Z,11.25
2023-02-12T20:46:26.720Z,10.75
2023-02-12T20:48:54.365Z,11.20
2023-02-12T20:51:23.564Z,10.73
2023-02-12T20:56:20.237Z,8.80
2023-02-12T20:58:47.855Z,8.93
2023-02-12T21:01:21.501Z,9.57
2023-02-12T21:03:49.746Z,9.52
2023-02-12T21:06:16.918Z,9.05
2023-02-12T21:08:44.077Z,10.40
2023-02-12T21:11:17.466Z,8.77
2023-02-12T21:13:53.846Z,8.45
2023-02-12T21:16:32.370Z,9.05
2023-02-12T21:19:00.598Z,9.40
2023-02-12T21:21:30.277Z,8.98
2023-02-12T21:23:58.608Z,8.25
2023-02-12T21:26:28.061Z,8.98
2023-02-12T21:28:56.642Z,8.13
2023-02-12T21:31:31.742Z,8.35
2023-02-12T21:34:00.320Z,7.90
2023-02-12T21:36:30.122Z,7.07
2023-02-12T21:38:57.653Z,7.78
2023-02-12T21:41:27.770Z,7.32
2023-02-12T21:44:00.979Z,7.75
2023-02-12T21:46:28.885Z,8.20
2023-02-12T21:48:56.378Z,6.85
2023-02-12T21:51:25.638Z,7.10
2023-02-12T21:56:20.219Z,6.10
2023-02-12T21:58:48.167Z,6.57
2023-02-12T22:01:17.896Z,6.28
2023-02-12T22:03:44.917Z,6.38
2023-02-12T22:06:14.010Z,6.00
2023-02-12T22:08:40.544Z,6.47
2023-02-12T22:11:09.314Z,6.43
2023-02-12T22:13:36.449Z,6.30
2023-02-12T22:16:15.881Z,6.00
2023-02-12T22:18:43.415Z,6.63
2023-02-12T22:21:13.604Z,6.07
2023-02-12T22:23:41.339Z,6.18
2023-02-12T22:26:16.194Z,6.20
2023-02-12T22:28:51.625Z,6.43
2023-02-12T22:33:47.320Z,5.65
2023-02-12T22:36:14.414Z,6.40
2023-02-12T22:38:41.614Z,5.30
2023-02-12T22:41:09.409Z,5.75
2023-02-12T22:43:38.376Z,5.60
2023-02-12T22:46:06.495Z,5.20
2023-02-12T22:48:33.006Z,5.10
2023-02-12T22:50:59.991Z,5.63
2023-02-12T22:53:26.704Z,5.28
2023-02-12T22:55:53.486Z,5.05
2023-02-12T22:58:20.168Z,5.93
2023-02-12T23:00:46.744Z,5.00
2023-02-12T23:03:13.267Z,5.13
2023-02-12T23:05:39.949Z,5.07
2023-02-12T23:08:07.135Z,4.75
2023-02-12T23:10:34.092Z,4.72
2023-02-12T23:13:02.182Z,4.00
2023-02-12T23:15:29.162Z,4.70
2023-02-12T23:17:55.805Z,4.85
2023-02-12T23:20:22.508Z,4.53
2023-02-12T23:22:49.186Z,4.30
2023-02-12T23:25:15.812Z,4.50
2023-02-12T23:27:42.349Z,4.20
2023-02-12T23:30:09.261Z,4.43
2023-02-12T23:32:35.766Z,4.28
2023-02-12T23:35:02.377Z,4.35
2023-02-12T23:37:28.862Z,4.72
2023-02-12T23:39:55.386Z,4.45
2023-02-12T23:42:21.926Z,4.70
2023-02-12T23:44:48.410Z,4.30
2023-02-12T23:47:14.916Z,4.00
2023-02-12T23:49:41.450Z,4.05
2023-02-12T23:52:08.184Z,3.80
2023-02-12T23:54:34.741Z,3.78
2023-02-12T23:57:01.314Z,3.30
2023-02-12T23:59:27.850Z,3.53
